Main page
METAR-TAF:

METAR-TAF

Airports :

Morristown Municipal Airport

Morristown, New Jersey, United States

latitude: 40-48N, longitude: 074-25W, elevation: 187 ft

Current weather observation

The report was made 12 minutes ago, at 05:15 UTC
Calm wind
Temperature 54°F
Humidity 94%
Pressure 29.88 in. Hg
Visibility: 10 miles
Clear sky

METAR: KMMU 210515Z AUTO 00000KT 10SM CLR 12/11 A2988 RMK AO2

Time: 01:27 (05:27 UTC)


TAF: missing

Weather observations and forecasts of more than 4000 airports (METAR and TAF reports).

The available stations are represented by yellow and red dots on the map.

Hover mouse over dot to see the name of the station.

Then click to see weather observations and forecasts.

To change the map : click on the green buttons with a black cross to zoom in, on the green button with a dash to zoom out, or on the green arrows for adjacent maps.


METAR-TAF: